Cantwell, Alaska
Current Conditions -  °F | °C
As of 5:36 PM on Friday 28 Nov 2014 (Local Time) from PAIN Reporting Station
Overcast Overcast  
Wind Chill:   Ceiling: 11000
Heat Index:   Visibility: 10mi
Dew Point:   Wind: 0mph
Humidity: 92%   Direction: NA
Pressure: 30.11"   Gusts: NA
Location:  63.39°N, 148.95°W
Report Text: PAIN 290236Z AUTO 00000KT 10SM SCT055 OVC110 M15/M16 A3011 RMK AO1
Loading
Personal Weather Stations






























Interactive Weather Map New forecast layout! Learn more

10-Day Weather Forecast

Advertisements
Track Severe Weather on mobile